Latest Weather Observations for Mount Gambier

IDS60801

Issued at 5:31 am CST Monday 25 July 2016 (issued every 30 minutes, with the page automatically refreshed every 10 minutes)

About weather observations | Map of weather stations | Latest weather observations for SA | Other Formats
Station Details ID: 026021 Name: MOUNT GAMBIER AERO Lat: -37.75 Lon: 140.77 Height: 63.0 m
Data from the previous 72 hours. | See also: Recent months at Mount Gambier
Date/Time
CST
Temp
°C
App
Temp
°C
Dew
Point
°C
Rel
Hum
%
Delta-T
°C
Wind Press
QNH
hPa
Press
MSL
hPa
Rain since
9am
mm
Dir  Spd
km/h
Gust
km/h
Spd
kts
Gust
kts
25/05:30am 7.0 3.4 5.0 87 0.9 WNW 13 19 7 10 1008.5 1008.6 8.8
25/05:00am 7.2 2.6 5.4 88 0.8 WNW 19 24 10 13 1008.4 1008.5 8.8
25/04:30am 7.7 3.5 5.9 88 0.8 W 17 20 9 11 1008.1 1008.2 8.8
25/04:00am 8.0 1.8 6.0 87 0.9 WSW 28 35 15 19 1007.7 1007.8 8.8
25/03:30am 8.4 2.0 6.9 90 0.7 W 30 43 16 23 1007.4 1007.5 8.8
25/03:00am 8.7 4.2 7.0 89 0.8 W 20 30 11 16 1007.2 1007.3 8.6
25/02:30am 8.4 3.5 7.1 91 0.6 W 22 28 12 15 1006.9 1007.0 8.6
25/02:00am 8.0 3.6 6.7 91 0.6 W 19 24 10 13 1006.8 1006.9 8.4
25/01:30am 6.9 3.2 6.2 95 0.3 NW 15 19 8 10 1006.2 1006.3 8.4
25/01:00am 6.4 2.3 6.0 97 0.2 NW 17 24 9 13 1006.0 1006.1 8.4
25/12:30am 5.8 1.1 5.3 97 0.2 NNW 19 24 10 13 1005.4 1005.5 8.4
25/12:00am 6.0 1.4 5.6 97 0.2 NNW 19 28 10 15 1005.2 1005.3 8.4
 
Date/Time
CST
Temp
°C
App
Temp
°C
Dew
Point
°C
Rel
Hum
%
Delta-T
°C
Wind Press
QNH
hPa
Press
MSL
hPa
Rain since
9am
mm
Dir  Spd
km/h
Gust
km/h
Spd
kts
Gust
kts
24/11:30pm 5.6 0.9 5.1 97 0.2 NNW 19 24 10 13 1004.8 1004.9 8.4
24/11:00pm 5.8 1.1 5.1 95 0.3 NNW 19 26 10 14 1004.7 1004.8 8.4
24/10:30pm 6.2 2.0 5.5 95 0.3 NNW 17 24 9 13 1004.4 1004.5 8.2
24/10:14pm 5.9 1.3 5.4 97 0.2 NNW 19 26 10 14 1004.4 1004.5 8.2
24/10:00pm 6.1 2.3 5.7 97 0.2 NW 15 28 8 15 1004.6 1004.7 8.0
24/09:30pm 5.9 1.2 5.2 95 0.3 NNW 19 28 10 15 1003.8 1003.9 7.6
24/09:00pm 6.2 1.3 5.3 94 0.4 NNW 20 30 11 16 1003.7 1003.8 7.6
24/08:30pm 6.7 2.0 6.0 95 0.3 NNW 20 30 11 16 1003.6 1003.7 7.4
24/08:00pm 6.9 2.2 6.0 94 0.4 NNW 20 30 11 16 1003.3 1003.4 7.2
24/07:30pm 7.0 2.5 6.3 95 0.3 NNW 19 24 10 13 1003.1 1003.2 6.8
24/07:00pm 7.1 2.3 5.8 91 0.6 NNW 20 28 11 15 1002.4 1002.5 6.2
24/06:30pm 7.3 4.0 6.4 94 0.4 N 13 19 7 10 1002.0 1002.1 6.0
24/06:00pm 7.8 2.9 6.7 93 0.5 NNW 22 33 12 18 1001.9 1002.0 6.0
24/05:30pm 7.6 3.6 6.7 94 0.4 NNW 17 28 9 15 1001.1 1001.2 6.0
24/05:00pm 7.9 3.0 6.8 93 0.5 NNW 22 32 12 17 1000.8 1000.9 6.0
24/04:30pm 8.3 3.4 7.0 91 0.6 NNW 22 32 12 17 1000.4 1000.5 5.6
24/04:00pm 8.5 4.4 7.7 95 0.4 NNW 19 28 10 15 1000.5 1000.6 5.4
24/03:30pm 8.2 3.5 7.6 96 0.3 NNW 22 33 12 18 1000.4 1000.5 5.2
24/03:00pm 7.4 2.2 7.2 99 0.1 NNW 24 35 13 19 1000.4 1000.5 4.8
24/02:30pm 7.5 1.9 7.1 97 0.2 NNW 26 41 14 22 1000.3 1000.4 3.8
24/02:21pm 7.5 1.1 6.9 96 0.3 NNW 30 44 16 24 1000.3 1000.4 3.8
24/02:10pm 7.7 1.8 7.3 97 0.2 NNW 28 50 15 27 1000.6 1000.7 3.4
24/02:09pm 7.7 2.1 7.3 97 0.2 NNW 26 43 14 23 1000.6 1000.7 3.2
24/02:06pm 8.0 2.8 7.2 95 0.4 NNW 24 43 13 23 1000.5 1000.6 2.6
24/02:00pm 8.0 2.8 7.2 95 0.4 NNW 24 35 13 19 1000.5 1000.6 2.0
24/01:58pm 8.0 2.3 6.9 93 0.5 NNW 26 41 14 22 1000.5 1000.6 1.8
24/01:54pm 8.1 2.1 7.0 93 0.5 N 28 46 15 25 1000.5 1000.6 1.2
24/01:30pm 8.5 2.1 7.0 90 0.7 N 30 41 16 22 1000.3 1000.4 0.6
24/01:00pm 8.4 3.2 7.1 91 0.6 N 24 32 13 17 1000.8 1000.9 0.4
24/12:33pm 8.3 1.8 6.4 88 0.9 NNE 30 48 16 26 1001.2 1001.3 0.2
24/12:32pm 8.4 1.5 6.5 88 0.9 NNE 32 48 17 26 1001.3 1001.4 0.2
24/12:31pm 8.4 1.8 6.2 86 1.0 NNE 30 48 16 26 1001.2 1001.3 0.2
24/12:30pm 8.4 1.8 6.2 86 1.0 NNE 30 41 16 22 1001.2 1001.3 0.2
24/12:14pm 8.3 2.2 6.4 88 0.9 N 28 48 15 26 1001.9 1002.0 0.2
24/12:00pm 8.0 1.9 6.5 90 0.7 N 28 37 15 20 1002.3 1002.4 0.2
24/11:32am 7.3 0.8 6.4 94 0.4 N 30 48 16 26 1003.0 1003.1 0.2
24/11:30am 7.3 0.7 6.2 93 0.5 N 30 39 16 21 1003.1 1003.2 0.2
24/11:20am 7.1 0.5 6.0 93 0.5 NNE 30 41 16 22 1003.3 1003.4 0.2
24/11:00am 6.9 0.3 6.0 94 0.4 NNE 30 43 16 23 1003.9 1004.0 0.2
24/10:53am 7.0 0.7 5.9 93 0.5 N 28 37 15 20 1004.1 1004.2 0.2
24/10:39am 7.0 -0.2 5.9 93 0.5 N 33 52 18 28 1004.3 1004.4 0.2
24/10:30am 7.0 -0.7 5.4 89 0.7 N 35 50 19 27 1004.4 1004.5 0.0
24/10:00am 7.6 1.0 4.2 79 1.5 N 28 41 15 22 1004.8 1004.9 0.0
24/09:30am 8.1 0.7 4.0 75 1.8 N 32 46 17 25 1005.0 1005.1 0.0
24/09:00am 7.5 0.9 4.1 79 1.5 N 28 37 15 20 1005.5 1005.6 3.6
24/08:30am 6.3 0.5 4.2 86 0.9 N 24 37 13 20 1006.0 1006.1 3.6
24/08:00am 5.9 0.1 4.3 89 0.7 N 24 33 13 18 1006.3 1006.4 3.6
24/07:30am 5.7 0.7 4.5 92 0.5 N 20 32 11 17 1006.6 1006.7 3.6
24/07:00am 5.3 -0.2 4.1 92 0.5 N 22 28 12 15 1006.8 1006.9 3.6
24/06:30am 4.7 -0.2 4.0 95 0.3 N 19 26 10 14 1007.1 1007.2 3.4
24/06:00am 4.4 -0.8 3.7 95 0.3 N 20 26 11 14 1007.2 1007.3 3.4
24/05:30am 4.4 -0.6 3.7 95 0.3 N 19 28 10 15 1007.5 1007.6 3.4
24/05:00am 4.5 -0.5 3.8 95 0.3 N 19 26 10 14 1007.8 1007.9 3.4
24/04:30am 4.5 -0.1 3.8 95 0.3 N 17 26 9 14 1008.1 1008.2 3.4
24/04:00am 4.6 -0.5 3.9 95 0.3 N 20 30 11 16 1008.4 1008.5 3.4
24/03:30am 4.0 -1.0 3.5 97 0.2 N 19 24 10 13 1008.9 1009.0 3.4
24/03:00am 3.9 -0.8 3.4 97 0.2 N 17 22 9 12 1009.4 1009.5 3.4
24/02:30am 4.3 -0.3 3.6 95 0.3 N 17 20 9 11 1009.9 1010.1 3.4
24/02:00am 4.3 0.1 3.6 95 0.3 N 15 19 8 10 1010.5 1010.7 3.4
24/01:30am 4.6 -0.3 4.1 97 0.2 N 19 24 10 13 1011.0 1011.1 3.4
24/01:00am 4.8 0.7 4.3 97 0.2 N 15 20 8 11 1011.3 1011.4 2.6
24/12:30am 4.8 0.3 4.1 95 0.3 N 17 22 9 12 1011.4 1011.5 2.6
24/12:00am 4.8 1.1 4.3 97 0.2 N 13 17 7 9 1011.6 1011.7 2.6
 
Date/Time
CST
Temp
°C
App
Temp
°C
Dew
Point
°C
Rel
Hum
%
Delta-T
°C
Wind Press
QNH
hPa
Press
MSL
hPa
Rain since
9am
mm
Dir  Spd
km/h
Gust
km/h
Spd
kts
Gust
kts
23/11:30pm 5.1 1.0 4.6 97 0.2 NNW 15 20 8 11 1012.0 1012.1 2.6
23/11:00pm 5.1 0.3 4.4 95 0.3 N 19 24 10 13 1012.1 1012.2 2.4
23/10:30pm 4.2 0.4 3.7 97 0.2 N 13 17 7 9 1012.3 1012.4 2.4
23/10:00pm 4.5 2.1 4.3 99 0.1 N 6 11 3 6 1012.4 1012.5 2.4
23/09:30pm 5.3 3.0 4.6 95 0.3 NNW 6 7 3 4 1012.5 1012.6 2.4
23/09:00pm 5.4 1.7 4.7 95 0.3 N 13 17 7 9 1012.8 1012.9 2.4
23/08:30pm 4.3 0.2 4.1 99 0.1 N 15 15 8 8 1012.6 1012.7 2.4
23/08:00pm 5.4 2.5 4.7 95 0.3 NNW 9 13 5 7 1012.8 1012.9 2.2
23/07:30pm 5.5 1.9 4.8 95 0.3 N 13 17 7 9 1012.9 1013.0 1.8
23/07:00pm 6.0 2.4 5.1 94 0.4 NNW 13 17 7 9 1012.8 1012.9 1.8
23/06:30pm 6.3 2.0 5.4 94 0.4 NW 17 24 9 13 1012.5 1012.6 1.8
23/06:00pm 4.9 1.5 4.2 95 0.3 N 11 13 6 7 1012.0 1012.1 1.6
23/05:30pm 6.4 2.3 4.6 88 0.8 NW 15 19 8 10 1011.9 1012.0 1.6
23/05:16pm 6.9 2.6 5.3 89 0.7 WNW 17 33 9 18 1012.3 1012.4 1.0
23/05:00pm 7.0 4.5 4.7 85 1.0 WNW 7 9 4 5 1011.9 1012.0 0.4
23/04:30pm 7.5 2.4 4.3 80 1.4 WSW 20 32 11 17 1011.6 1011.7 0.4
23/04:00pm 8.2 3.0 3.8 74 1.9 SW 20 30 11 16 1011.6 1011.7 0.4
23/03:42pm 8.5 1.8 3.9 73 2.0 W 28 46 15 25 1011.5 1011.6 0.4
23/03:30pm 9.5 3.9 3.3 65 2.7 W 22 33 12 18 1011.2 1011.3 0.4
23/03:00pm 8.7 2.7 3.6 70 2.2 W 24 33 13 18 1011.1 1011.2 0.4
23/02:30pm 10.2 4.1 2.5 59 3.3 WSW 24 33 13 18 1010.6 1010.8 0.2
23/02:01pm 9.6 2.8 2.9 63 2.9 W 28 46 15 25 1010.5 1010.7 0.2
23/02:00pm 9.7 2.8 2.7 61 3.0 W 28 37 15 20 1010.4 1010.6 0.2
23/01:30pm 9.0 2.7 3.7 69 2.3 WSW 26 35 14 19 1010.3 1010.5 0.2
23/01:15pm 8.5 1.0 4.2 74 1.9 WSW 33 54 18 29 1010.5 1010.7 0.2
23/01:00pm 10.7 2.7 0.5 49 4.2 WSW 32 41 17 22 1010.1 1010.3 0.2
23/12:30pm 9.3 3.7 3.6 67 2.5 WSW 22 30 12 16 1010.1 1010.3 0.2
23/12:27pm 8.7 3.0 2.8 66 2.5 WSW 22 30 12 16 1010.1 1010.3 0.2
23/12:14pm 7.9 0.4 3.7 75 1.8 SW 32 50 17 27 1010.1 1010.3 0.2
23/12:13pm 7.9 0.4 3.5 74 1.9 SW 32 50 17 27 1010.1 1010.3 0.2
23/12:09pm 8.7 1.7 3.9 72 2.1 WSW 30 50 16 27 1010.1 1010.3 0.2
23/12:00pm 10.0 5.0 4.7 69 2.4 W 20 30 11 16 1010.1 1010.3 0.2
23/11:32am 8.9 1.5 2.0 62 2.9 WSW 30 52 16 28 1010.4 1010.6 0.0
23/11:30am 10.1 2.6 0.9 53 3.8 WSW 30 39 16 21 1010.3 1010.5 0.0
23/11:00am 10.1 2.5 0.6 51 3.9 WSW 30 44 16 24 1010.2 1010.4 0.0
23/10:30am 9.6 4.1 1.7 58 3.3 WSW 20 33 11 18 1010.1 1010.3 0.0
23/10:00am 8.2 0.4 1.9 64 2.6 SW 32 44 17 24 1009.8 1010.0 0.0
23/09:30am 9.1 1.7 -0.8 50 3.9 WSW 28 39 15 21 1009.4 1009.5 0.0
23/09:00am 8.5 1.1 -1.0 51 3.7 WSW 28 37 15 20 1008.9 1009.0 8.4
23/08:30am 8.0 1.3 -1.1 52 3.5 W 24 33 13 18 1008.6 1008.7 8.4
23/08:00am 7.0 0.7 -0.8 57 3.0 WSW 22 30 12 16 1008.1 1008.2 8.4
23/07:30am 6.8 0.6 -0.1 61 2.7 WSW 22 33 12 18 1007.8 1007.9 8.4
23/07:11am 7.0 -0.5 -1.5 54 3.2 WSW 28 46 15 25 1007.4 1007.5 8.4
23/07:00am 7.1 -0.6 -3.1 48 3.7 WSW 28 39 15 21 1007.1 1007.2 8.4
23/06:30am 7.3 0.4 -2.8 48 3.7 WSW 24 39 13 21 1006.6 1006.7 8.4
23/06:00am 7.1 0.4 -1.3 55 3.2 WSW 24 37 13 20 1006.0 1006.1 8.4
23/05:30am 7.1 -0.9 -2.3 51 3.5 WSW 30 44 16 24 1005.4 1005.5 8.4
23/05:00am 7.4 -1.7 -3.7 45 4.0 WSW 35 52 19 28 1004.8 1004.9 8.4
23/04:51am 7.8 -0.7 -3.5 44 4.1 WSW 32 50 17 27 1004.6 1004.7 8.4
23/04:30am 7.9 -0.5 -1.2 52 3.5 WSW 33 46 18 25 1004.1 1004.2 8.4
23/04:04am 7.8 0.3 1.2 63 2.7 WSW 30 48 16 26 1003.5 1003.6 8.4
23/04:00am 7.9 0.8 1.3 63 2.7 WSW 28 41 15 22 1003.4 1003.5 8.4
23/03:30am 7.6 -0.5 1.2 64 2.6 WSW 33 46 18 25 1002.7 1002.8 8.4
23/03:00am 7.4 -1.0 3.9 78 1.5 SW 37 56 20 30 1002.2 1002.3 8.2
23/02:33am 7.7 0.3 3.8 76 1.7 WSW 32 50 17 27 1001.5 1001.6 8.2
23/02:30am 7.6 0.6 3.9 77 1.6 WSW 30 39 16 21 1001.4 1001.5 8.2
23/02:00am 7.7 -0.3 4.0 77 1.6 WSW 35 56 19 30 1001.0 1001.1 8.2
23/01:59am 7.7 -0.3 4.0 77 1.6 WSW 35 56 19 30 1001.0 1001.1 8.2
23/01:30am 7.5 0.4 5.3 86 1.0 WSW 32 41 17 22 1000.2 1000.3 8.2
23/01:00am 7.2 2.0 5.7 90 0.7 W 22 32 12 17 999.4 999.5 8.0
23/12:30am 7.2 -0.5 5.2 87 0.9 WSW 35 61 19 33 998.7 998.8 7.8
23/12:23am 7.7 2.2 5.7 87 0.9 WSW 24 57 13 31 998.6 998.7 7.6
23/12:00am 7.7 3.5 5.7 87 0.9 WSW 17 22 9 12 997.6 997.7 7.4
 
Date/Time
CST
Temp
°C
App
Temp
°C
Dew
Point
°C
Rel
Hum
%
Delta-T
°C
Wind Press
QNH
hPa
Press
MSL
hPa
Rain since
9am
mm
Dir  Spd
km/h
Gust
km/h
Spd
kts
Gust
kts
22/11:30pm 7.7 3.2 6.2 90 0.7 SW 19 26 10 14 997.0 997.0 7.4
22/11:00pm 8.1 5.3 6.8 91 0.6 W 11 19 6 10 996.1 996.1 7.2
22/10:30pm 8.0 4.0 6.7 91 0.6 WNW 17 20 9 11 995.3 995.4 7.2
22/10:00pm 8.6 1.6 6.7 88 0.9 WSW 33 54 18 29 994.7 994.8 7.2
22/09:37pm 9.0 1.5 6.2 82 1.3 W 35 54 19 29 994.1 994.2 7.0
22/09:30pm 8.9 0.6 6.1 82 1.3 WNW 39 52 21 28 994.0 994.1 7.0
22/09:00pm 8.2 0.7 6.5 89 0.8 WNW 35 56 19 30 993.6 993.7 6.8
22/08:49pm 8.2 -0.1 6.0 86 1.0 NW 39 63 21 34 993.9 994.0 6.6
22/08:30pm 8.6 1.5 6.5 87 1.0 NW 33 48 18 26 993.4 993.5 6.2
22/08:25pm 8.7 2.3 7.0 89 0.8 NNW 30 48 16 26 993.6 993.7 6.2
22/08:00pm 8.3 3.5 7.2 93 0.5 NNW 22 30 12 16 993.4 993.5 5.8
22/07:30pm 8.5 2.5 7.2 91 0.6 NNW 28 37 15 20 993.4 993.5 5.8
22/07:00pm 8.4 2.8 7.1 91 0.6 NNW 26 50 14 27 993.6 993.7 5.6
22/06:54pm 8.6 3.7 7.1 90 0.7 NNW 22 50 12 27 994.2 994.3 5.4
22/06:30pm 8.0 4.8 6.9 93 0.5 N 13 19 7 10 993.6 993.7 4.6
22/06:00pm 8.8 4.9 7.3 90 0.7 NW 17 26 9 14 993.8 993.9 4.6
22/05:30pm 9.4 4.8 8.2 92 0.6 WNW 22 33 12 18 994.2 994.3 4.4
22/05:00pm 9.9 3.2 7.4 84 1.2 NW 32 46 17 25 994.3 994.4 3.6
22/04:56pm 10.1 4.2 7.6 84 1.2 NW 28 41 15 22 994.3 994.4 3.6
22/04:30pm 11.3 8.1 8.5 83 1.4 NW 15 20 8 11 994.3 994.4 2.6
22/04:00pm 11.7 8.0 8.1 78 1.8 NW 17 26 9 14 994.4 994.5 2.6
22/03:30pm 12.0 8.2 7.7 75 2.1 WNW 17 24 9 13 994.7 994.8 2.6
22/03:00pm 12.4 6.7 8.2 75 2.1 W 28 33 15 18 995.0 995.1 2.6
22/02:30pm 13.1 9.2 8.6 74 2.3 WNW 19 28 10 15 995.0 995.1 2.6
22/02:00pm 12.3 7.3 7.9 74 2.2 WNW 24 33 13 18 995.1 995.2 2.6
22/01:30pm 11.5 5.7 7.8 78 1.8 WNW 28 41 15 22 995.2 995.3 2.6
22/01:27pm 11.9 5.8 8.3 78 1.8 WNW 30 41 16 22 995.1 995.2 2.6
22/01:11pm 12.9 5.3 7.4 69 2.7 W 37 56 20 30 995.8 995.8 2.4
22/01:00pm 13.6 6.3 7.1 65 3.2 WNW 35 48 19 26 995.8 995.8 2.4
22/12:41pm 13.3 7.0 9.0 75 2.2 WNW 32 52 17 28 995.8 995.8 2.4
22/12:30pm 12.8 6.3 9.1 78 1.9 W 33 48 18 26 995.9 995.9 2.2
22/12:08pm 13.5 6.8 8.1 70 2.7 WNW 33 52 18 28 996.2 996.2 2.2
22/12:00pm 14.0 7.7 7.6 65 3.2 WNW 30 44 16 24 996.2 996.2 2.2
22/11:56am 13.8 7.3 8.3 69 2.8 WNW 32 50 17 27 996.2 996.2 2.2
22/11:30am 14.3 7.3 8.6 68 2.9 WNW 35 52 19 28 996.6 996.6 2.2
22/11:28am 14.2 7.4 7.8 65 3.2 WNW 33 52 18 28 996.6 996.6 2.2
22/11:00am 13.5 7.0 9.0 74 2.3 WNW 33 44 18 24 996.9 996.9 2.2
22/10:49am 13.8 8.4 9.6 76 2.2 WNW 28 46 15 25 996.8 996.8 2.2
22/10:30am 12.8 6.4 9.3 79 1.8 WNW 33 48 18 26 997.0 997.0 2.2
22/10:13am 13.1 8.9 11.2 88 1.0 WNW 24 33 13 18 997.1 997.1 2.2
22/10:00am 11.8 6.3 10.7 93 0.6 NW 30 56 16 30 996.9 996.9 2.2
22/09:56am 11.7 6.5 10.4 92 0.7 NW 28 56 15 30 997.1 997.1 2.0
22/09:52am 11.9 7.6 10.8 93 0.6 NW 24 32 13 17 997.3 997.3 1.6
22/09:30am 12.1 6.1 10.0 87 1.1 WNW 32 41 17 22 997.0 997.0 0.6
22/09:20am 12.0 3.8 9.7 86 1.2 WNW 43 65 23 35 996.8 996.8 0.6
22/09:05am 12.5 5.3 10.4 87 1.1 NNW 39 76 21 41 996.6 996.6 0.4
22/09:00am 13.1 7.4 11.0 87 1.1 NNW 32 41 17 22 996.1 996.1 4.4
22/08:36am 13.0 8.0 10.9 87 1.1 NNW 28 46 15 25 996.3 996.3 4.4
22/08:30am 13.0 7.6 10.9 87 1.1 NNW 30 43 16 23 996.3 996.3 4.4
22/08:00am 13.1 8.1 10.8 86 1.2 NNW 28 35 15 19 996.3 996.3 4.4
22/07:30am 12.7 8.5 11.0 89 0.9 NNW 24 35 13 19 996.4 996.4 4.4
22/07:00am 13.1 7.7 11.0 87 1.1 NNW 30 39 16 21 996.7 996.7 4.4
22/06:30am 13.1 8.2 11.2 88 1.0 NNW 28 41 15 22 996.5 996.5 4.4
22/06:00am 13.1 7.8 11.4 89 0.9 NNW 30 43 16 23 996.7 996.7 4.4

Other Formats:

Comma delimited format used in spreadsheet applications
http://www.bom.gov.au/fwo/IDS60801/IDS60801.94821.axf

JavaScript Object Notation format (JSON) in row-major order
http://www.bom.gov.au/fwo/IDS60801/IDS60801.94821.json